Terminal Aerodrome Forecast
Issued by NWS Hastings, NE

Home | Current Version | Previous Version | Text Only | Print | Product List | Glossary On
Versions: 1 2 3 4 5 6 7 8 9 10 11 12 13 14 15
000
FTUS45 KGID 021120
TAFEAR
TAF
KEAR 021120Z 0212/0312 16014G22KT P6SM SCT015 OVC035
      TEMPO 0212/0215 20015G20KT -TSRA OVC010CB
     FM021600 17018G27KT P6SM OVC045
      AMD LTD TO CLD VIS AND WIND=

USA.gov is the U.S. government's official web portal to all federal, state and local government web resources and services.